Aviation Digital Data Service (ADDS)

Output produced by METARs form (0737 UTC 24 March 2019)
found at http://www.aviationweather.gov/metar/data/
 
RKTU 240700Z 28011KT 9999 FEW030 11/M03 Q1018
TAF RKTU 240500Z 2406/2512 24010KT 9999 SCT030 TN00/2421Z TX15/2506Z
       
RKTN 240700Z 32010KT CAVOK 13/M10 Q1017
TAF RKTN 240500Z 2406/2512 31008KT 9999 SCT040 TX13/2407Z TN02/2421Z
       
RKPK 240700Z 18014KT CAVOK 12/M02 Q1018
TAF RKPK 240500Z 2406/2512 18006KT 9999 FEW030 TN03/2412Z TX16/2506Z 
     BECMG 2420/2421 33006KT
       
RKSS 240700Z 24012KT CAVOK 08/M06 Q1020 NOSIG
TAF RKSS 240500Z 2406/2512 23010G20KT 7000 NSC TN01/2421Z TX14/2506Z 
     BECMG 2413/2415 17007KT 
     BECMG 2422/2423 BKN030 
     BECMG 2502/2503 21015G30KT NSC 
     BECMG 2510/2511 19010KT SCT030
       
RKSI 240730Z 23011KT 210V270 CAVOK 07/M06 Q1020 NOSIG
TAF RKSI 240500Z 2406/2512 23015G25KT CAVOK TN04/2421Z TX11/2505Z 
     BECMG 2412/2413 19012KT 6000 NSC 
     TEMPO 2419/2423 4200 BR SCT030 BKN150 
     BECMG 2501/2502 21015G25KT 
     BECMG 2510/2511 19010KT
       
RKPC 240700Z 30007KT 260V340 CAVOK 09/00 Q1022 NOSIG
TAF RKPC 240500Z 2406/2512 29007KT 9999 FEW030 BKN180 TN05/2421Z TX15/2506Z 
     BECMG 2410/2411 21006KT 
     BECMG 2502/2503 27006KT BKN030 BKN180 
     BECMG 2506/2507 27015G25KT 
     BECMG 2510/2511 21006KT
       
RKJK 240656Z AUTO 29009KT 10SM CLR 08/M01 A3016 RMK AO2 SLP218 T00761014 $
TAF RKJK 240700Z 2407/2513 29012KT 9999 FEW020 QNH3010INS 
     BECMG 2418/2419 29009KT 4800 BR BKN025 QNH3003INS 
     BECMG 2423/2424 20012G18KT 9999 NSW SCT030 QNH3000INS TX10/2502Z TN00/2419Z
       
RKSO 240523Z AUTO 26012KT 7SM CLR 09/M02 A3013 RMK AO2 WSHFT 18 SLP207
TAF RKSO 240300Z 2403/2509 24009KT 9999 FEW040 QNH3017INS 
     TEMPO 2403/2407 22010G15KT 
     TEMPO 2418/2423 6000 BR 
     BECMG 2423/2424 22012G18KT 8000 HZ FEW012 BKN025 QNH3000INS TX11/2502Z
TNM03/2421Z
       
RKSM 240700Z 26010KT 9999 FEW050 09/M05 A3012
TAF RKSM 240500Z 2406/2512 24010KT 9999 SCT040 TN01/2421Z TX12/2506Z
       
RKNY 240700Z 24012KT CAVOK 11/M10 Q1013 NOSIG
TAF RKNY 240500Z 2406/2512 24017G27KT CAVOK TN06/2421Z TX15/2505Z 
     TEMPO 2408/2410 27012KT 
     BECMG 2502/2503 24020G37KT